Bay Point, New York
Current Conditions -  °F | °C
As of 8:53 AM on Saturday 25 Oct 2014 (Local Time) from KFOK Reporting Station
Clear Clear  
Wind Chill: 11°   Ceiling: Unl
Heat Index: 11°   Visibility: 10mi
Dew Point:   Wind: 3mph
Humidity: 83%   Direction: 310°NW
Pressure: 29.85"   Gusts: NA
Location:  40.9692°N, 72.306°W
Report Text: KFOK 251253Z 31003KT 10SM CLR 11/08 A2985 RMK AO2 SLP106 T01110083
Loading
Personal Weather Stations






























Interactive Weather Map
Tropical Storm Tracking
New forecast layout! Learn more

10-Day Weather Forecast

Advertisements
Track Severe Weather on mobile